createdAt,value
2022-09-28T00:09:17.966Z,1.30
2022-09-28T00:20:17.653Z,1.10
2022-09-28T00:31:17.562Z,1.20
2022-09-28T00:42:17.431Z,1.40
2022-09-28T00:53:17.281Z,1.20
2022-09-28T01:04:17.177Z,1.60
2022-09-28T01:15:17.042Z,2.30
2022-09-28T01:26:16.918Z,1.30
2022-09-28T01:37:16.794Z,1.20
2022-09-28T01:48:16.677Z,2.30
2022-09-28T01:59:16.766Z,1.10
2022-09-28T02:10:16.441Z,1.10
2022-09-28T02:21:16.311Z,1.10
2022-09-28T02:32:16.187Z,0.60
2022-09-28T02:43:16.152Z,0.70
2022-09-28T02:54:18.780Z,0.90
2022-09-28T03:05:15.861Z,1.50
2022-09-28T03:16:15.791Z,0.80
2022-09-28T03:27:15.580Z,0.80
2022-09-28T03:38:15.460Z,0.80
2022-09-28T03:49:15.404Z,1.00
2022-09-28T04:00:15.215Z,1.80
2022-09-28T04:11:15.097Z,1.70
2022-09-28T04:22:14.973Z,1.90
2022-09-28T04:33:14.852Z,1.90
2022-09-28T04:44:14.740Z,2.00
2022-09-28T04:55:14.619Z,1.80
2022-09-28T05:06:14.486Z,3.00
2022-09-28T05:17:14.365Z,2.30
2022-09-28T05:28:14.258Z,3.30
2022-09-28T05:39:14.215Z,2.20
2022-09-28T05:50:14.003Z,2.20
2022-09-28T06:01:13.939Z,3.50
2022-09-28T06:12:13.751Z,2.10
2022-09-28T06:23:13.665Z,3.00
2022-09-28T06:34:13.578Z,4.30
2022-09-28T06:45:13.389Z,1.90
2022-09-28T06:56:13.251Z,2.60
2022-09-28T07:07:13.135Z,2.60
2022-09-28T07:18:14.053Z,3.10
2022-09-28T07:29:12.881Z,4.00
2022-09-28T07:40:12.755Z,3.30
2022-09-28T07:51:12.676Z,2.30
2022-09-28T08:02:12.737Z,2.40
2022-09-28T08:13:12.412Z,1.80
2022-09-28T08:24:12.293Z,1.40
2022-09-28T08:35:12.147Z,1.80
2022-09-28T08:46:12.098Z,1.90
2022-09-28T08:57:11.914Z,2.00
2022-09-28T09:08:11.778Z,1.50
2022-09-28T09:19:11.651Z,1.90
2022-09-28T09:30:11.531Z,1.90
2022-09-28T09:41:11.408Z,1.50
2022-09-28T09:52:11.291Z,1.70
2022-09-28T10:03:12.162Z,1.20
2022-09-28T10:14:11.067Z,2.20
2022-09-28T10:25:10.936Z,1.20
2022-09-28T10:36:10.791Z,2.10
2022-09-28T10:47:10.727Z,2.90
2022-09-28T10:58:10.555Z,1.30
2022-09-28T11:09:10.541Z,1.10
2022-09-28T11:20:10.308Z,1.90
2022-09-28T11:31:10.287Z,1.20
2022-09-28T11:42:14.140Z,1.10
2022-09-28T11:53:09.949Z,1.00
2022-09-28T12:04:09.812Z,0.70
2022-09-28T12:15:09.705Z,1.50
2022-09-28T12:26:09.561Z,1.20
2022-09-28T12:37:09.453Z,1.00
2022-09-28T12:48:09.322Z,1.00
2022-09-28T12:59:09.179Z,1.80
2022-09-28T13:10:09.062Z,2.10
2022-09-28T13:21:08.938Z,1.30
2022-09-28T13:32:08.837Z,1.10
2022-09-28T13:43:08.699Z,0.90
2022-09-28T13:54:08.569Z,1.40
2022-09-28T14:05:08.433Z,1.20
2022-09-28T14:16:08.389Z,1.50
2022-09-28T14:27:08.181Z,0.80
2022-09-28T14:38:08.073Z,1.20
2022-09-28T14:49:07.949Z,1.40
2022-09-28T15:00:07.830Z,1.30
2022-09-28T15:11:07.690Z,1.60
2022-09-28T15:22:07.568Z,1.10
2022-09-28T15:33:07.498Z,1.40
2022-09-28T15:44:07.335Z,1.50
2022-09-28T15:55:08.660Z,1.90
2022-09-28T16:06:07.071Z,1.20
2022-09-28T16:17:06.944Z,1.20
2022-09-28T16:28:06.827Z,1.60
2022-09-28T16:39:06.707Z,1.90
2022-09-28T16:50:06.575Z,1.30
2022-09-28T17:01:06.472Z,1.30
2022-09-28T17:12:07.384Z,1.60
2022-09-28T17:23:06.221Z,1.70
2022-09-28T17:34:06.084Z,1.70
2022-09-28T17:45:06.083Z,1.90
2022-09-28T17:56:05.846Z,1.70
2022-09-28T18:07:05.707Z,2.40
2022-09-28T18:18:05.590Z,2.40
2022-09-28T18:29:05.461Z,2.90
2022-09-28T18:40:05.369Z,3.50
2022-09-28T18:51:05.366Z,2.60
2022-09-28T19:02:06.226Z,3.10
2022-09-28T19:13:04.977Z,2.80
2022-09-28T19:24:04.841Z,2.70
2022-09-28T19:35:04.724Z,3.10
2022-09-28T19:46:04.715Z,3.20
2022-09-28T19:57:04.483Z,4.00
2022-09-28T20:08:04.365Z,4.40
2022-09-28T20:19:04.313Z,5.40
2022-09-28T20:30:04.125Z,4.30
2022-09-28T20:41:04.001Z,3.40
2022-09-28T20:52:03.862Z,2.60
